createdAt,value
2018-12-04T00:00:38.555Z,98443.42
2018-12-04T00:03:08.699Z,98449.64
2018-12-04T00:05:38.546Z,98451.80
2018-12-04T00:08:08.448Z,98462.66
2018-12-04T00:10:38.418Z,98457.05
2018-12-04T00:13:08.369Z,98474.82
2018-12-04T00:15:38.219Z,98467.67
2018-12-04T00:18:08.191Z,98468.98
2018-12-04T00:20:38.040Z,98479.14
2018-12-04T00:26:03.517Z,98474.47
2018-12-04T00:28:33.692Z,98478.17
2018-12-04T00:31:03.523Z,98479.84
2018-12-04T00:33:33.568Z,98484.85
2018-12-04T00:36:03.454Z,98439.06
2018-12-04T00:38:33.567Z,98487.09
2018-12-04T00:41:03.583Z,98480.91
2018-12-04T00:43:33.463Z,98485.43
2018-12-04T00:46:03.355Z,98484.58
2018-12-04T00:48:33.515Z,98483.77
2018-12-04T00:51:03.485Z,98482.06
2018-12-04T00:53:33.431Z,98491.76
2018-12-04T00:56:03.530Z,98483.03
2018-12-04T00:58:33.401Z,98495.31
2018-12-04T01:01:03.787Z,98498.05
2018-12-04T01:03:33.643Z,98495.42
2018-12-04T01:06:03.783Z,98489.83
2018-12-04T01:11:29.313Z,98483.03
2018-12-04T01:13:59.149Z,98447.40
2018-12-04T01:16:29.000Z,98481.84
2018-12-04T01:18:58.925Z,98431.02
2018-12-04T01:21:28.798Z,98488.79
2018-12-04T01:23:58.699Z,98481.73
2018-12-04T01:26:28.594Z,98489.14
2018-12-04T01:28:58.867Z,98489.27
2018-12-04T01:31:28.717Z,98490.00
2018-12-04T01:33:58.970Z,98491.66
2018-12-04T01:36:28.857Z,98494.28
2018-12-04T01:38:58.856Z,98491.55
2018-12-04T01:41:28.777Z,98436.78
2018-12-04T01:43:58.948Z,98501.36
2018-12-04T01:46:36.206Z,98498.97
2018-12-04T01:49:06.056Z,98469.78
2018-12-04T01:51:36.023Z,98519.39
2018-12-04T01:54:05.954Z,98518.66
2018-12-04T01:56:35.809Z,98528.42
2018-12-04T01:59:06.074Z,98520.42
2018-12-04T02:01:35.961Z,98529.73
2018-12-04T02:04:06.318Z,98531.95
2018-12-04T02:06:36.841Z,98530.87
2018-12-04T02:09:27.538Z,98533.59
2018-12-04T02:11:57.409Z,98542.08
2018-12-04T02:14:27.307Z,98545.50
2018-12-04T02:16:57.179Z,98544.28
2018-12-04T02:19:27.197Z,98560.47
2018-12-04T02:21:57.174Z,98557.84
2018-12-04T02:24:27.479Z,98566.30
2018-12-04T02:27:18.047Z,98566.05
2018-12-04T02:29:47.949Z,98565.42
2018-12-04T02:32:17.830Z,98566.38
2018-12-04T02:34:47.697Z,98510.44
2018-12-04T02:37:17.879Z,98573.73
2018-12-04T02:39:47.763Z,98550.50
2018-12-04T02:42:25.877Z,98574.91
2018-12-04T02:44:56.560Z,98585.02
2018-12-04T02:47:26.778Z,98596.25
2018-12-04T02:50:35.877Z,98596.71
2018-12-04T02:53:05.867Z,98601.36
2018-12-04T02:58:31.610Z,98608.48
2018-12-04T03:01:01.565Z,98614.30
2018-12-04T03:03:31.380Z,98624.45
2018-12-04T03:06:20.098Z,98597.48
2018-12-04T03:08:50.030Z,98629.48
2018-12-04T03:11:19.883Z,98626.64
2018-12-04T03:13:49.805Z,98649.41
2018-12-04T03:16:19.647Z,98638.80
2018-12-04T03:18:49.622Z,98647.62
2018-12-04T03:24:15.480Z,98657.38
2018-12-04T03:26:45.323Z,98665.11
2018-12-04T03:29:15.321Z,98666.42
2018-12-04T03:31:45.199Z,98608.45
2018-12-04T03:34:33.906Z,98679.95
2018-12-04T03:37:04.061Z,98684.28
2018-12-04T03:39:33.909Z,98650.38
2018-12-04T03:42:04.027Z,98689.73
2018-12-04T03:44:33.889Z,98695.34
2018-12-04T03:47:03.919Z,98695.20
2018-12-04T03:49:33.823Z,98695.44
2018-12-04T03:52:03.729Z,98696.97
2018-12-04T03:54:33.825Z,98705.69
2018-12-04T03:57:03.766Z,98709.73
2018-12-04T03:59:52.485Z,98712.45
2018-12-04T04:02:22.466Z,98720.68
2018-12-04T04:04:52.360Z,98719.02
2018-12-04T04:07:22.588Z,98728.22
2018-12-04T04:09:52.434Z,98721.66
2018-12-04T04:12:22.543Z,98717.83
2018-12-04T04:14:52.411Z,98719.42
2018-12-04T04:17:22.757Z,98731.80
2018-12-04T04:19:52.619Z,98739.12
2018-12-04T04:22:23.104Z,98742.69
2018-12-04T04:25:11.797Z,98756.45
2018-12-04T04:27:41.674Z,98748.27
2018-12-04T04:30:11.574Z,98750.51
2018-12-04T04:32:41.519Z,98755.59
2018-12-04T04:35:11.381Z,98764.67
2018-12-04T04:37:41.348Z,98775.73
2018-12-04T04:40:11.410Z,98771.33
2018-12-04T04:42:41.620Z,98793.52
2018-12-04T04:45:11.492Z,98774.91
2018-12-04T04:50:32.605Z,98776.64
2018-12-04T04:53:02.472Z,98781.68
2018-12-04T04:55:32.437Z,98798.52
2018-12-04T04:58:02.448Z,98808.09
2018-12-04T05:00:32.288Z,98814.55
2018-12-04T05:03:02.187Z,98809.20
2018-12-04T05:08:15.107Z,98800.59
2018-12-04T05:10:45.024Z,98811.17
2018-12-04T05:13:14.942Z,98825.50
2018-12-04T05:16:24.017Z,98832.41
2018-12-04T05:18:54.023Z,98832.91
2018-12-04T05:21:23.904Z,98755.09
2018-12-04T05:23:54.094Z,98836.55
2018-12-04T05:26:24.003Z,98833.72
2018-12-04T05:28:54.107Z,98838.70
2018-12-04T05:34:20.324Z,98848.34
2018-12-04T05:36:50.283Z,98860.34
2018-12-04T05:39:59.379Z,98856.05
2018-12-04T05:42:29.495Z,98879.29
2018-12-04T05:45:19.947Z,98881.42
2018-12-04T05:51:04.477Z,98888.69
2018-12-04T05:53:53.181Z,98894.03
2018-12-04T05:59:37.768Z,98814.67
2018-12-04T06:05:28.619Z,98924.66
2018-12-04T06:08:17.609Z,98842.84
2018-12-04T06:13:43.722Z,98932.81
2018-12-04T06:19:09.071Z,98952.28
2018-12-04T06:21:38.999Z,98926.99
2018-12-04T06:24:08.917Z,98968.95
2018-12-04T06:27:18.024Z,98889.86
2018-12-04T06:29:47.983Z,98979.05
2018-12-04T06:32:18.072Z,98970.81
2018-12-04T06:34:48.083Z,98995.87
2018-12-04T06:37:18.125Z,99004.77
2018-12-04T06:39:47.994Z,99000.89
2018-12-04T06:42:18.048Z,99008.56
2018-12-04T06:44:47.894Z,99017.00
2018-12-04T06:47:17.776Z,99015.13
2018-12-04T06:49:47.643Z,98968.36
2018-12-04T06:55:27.010Z,99033.56
2018-12-04T06:58:26.962Z,99037.41
2018-12-04T07:04:24.746Z,99050.72
2018-12-04T07:07:06.907Z,99067.55
2018-12-04T07:12:39.015Z,99092.89
2018-12-04T07:15:13.118Z,99100.77
2018-12-04T07:21:12.639Z,99109.36
2018-12-04T07:24:02.200Z,99123.63
2018-12-04T07:26:34.398Z,99122.48
2018-12-04T07:32:25.325Z,99136.01
2018-12-04T07:46:15.783Z,99165.79
2018-12-04T07:48:47.735Z,99162.05
2018-12-04T07:51:17.605Z,99173.41
2018-12-04T07:53:47.895Z,99178.92
2018-12-04T07:56:17.902Z,99184.44
2018-12-04T07:58:47.850Z,99193.44
2018-12-04T08:01:56.910Z,99199.64
2018-12-04T08:04:26.848Z,99199.91
2018-12-04T08:06:57.127Z,99205.52
2018-12-04T08:09:27.443Z,99219.05
2018-12-04T08:15:07.121Z,99230.67
2018-12-04T08:17:37.325Z,99239.58
2018-12-04T08:20:08.636Z,99249.59
2018-12-04T08:22:57.362Z,99260.86
2018-12-04T08:25:27.713Z,99272.13
2018-12-04T08:27:57.560Z,99284.67
2018-12-04T08:30:48.198Z,99273.62
2018-12-04T08:36:28.091Z,99293.31
2018-12-04T08:38:58.023Z,99288.06
2018-12-04T08:41:28.040Z,99291.73
2018-12-04T08:44:37.111Z,99300.73
2018-12-04T08:47:07.076Z,99315.17
2018-12-04T08:49:36.925Z,99319.02
2018-12-04T08:52:06.858Z,99320.89
2018-12-04T08:54:36.719Z,99294.08
2018-12-04T08:57:06.727Z,99348.95
2018-12-04T08:59:36.605Z,99359.73
2018-12-04T09:02:06.456Z,99350.17
2018-12-04T09:04:36.331Z,99358.97
2018-12-04T09:18:39.620Z,99431.60
2018-12-04T09:21:08.533Z,99420.88
2018-12-04T09:23:37.178Z,99422.91
2018-12-04T09:26:06.268Z,99431.27
2018-12-04T09:28:34.799Z,99442.41
2018-12-04T09:31:03.644Z,99452.19
2018-12-04T09:33:32.177Z,99457.98
2018-12-04T09:36:00.892Z,99473.38
2018-12-04T09:38:29.550Z,99459.83
2018-12-04T09:40:58.173Z,99467.91
2018-12-04T09:43:27.167Z,99469.03
2018-12-04T09:45:55.735Z,99474.47
2018-12-04T09:48:24.357Z,99492.02
2018-12-04T09:50:52.986Z,99493.59
2018-12-04T09:53:25.241Z,99499.39
2018-12-04T09:55:52.098Z,99494.14
2018-12-04T09:58:20.744Z,99502.10
2018-12-04T10:00:49.250Z,99514.37
2018-12-04T10:03:17.802Z,99518.90
2018-12-04T10:05:46.346Z,99490.47
2018-12-04T10:08:14.869Z,99531.83
2018-12-04T10:10:43.754Z,99485.71
2018-12-04T10:13:12.305Z,99533.59
2018-12-04T10:15:40.911Z,99549.16
2018-12-04T10:18:09.469Z,99553.72
2018-12-04T10:20:38.016Z,99553.52
2018-12-04T10:23:06.778Z,99557.73
2018-12-04T10:25:37.533Z,99578.45
2018-12-04T10:28:06.114Z,99569.97
2018-12-04T10:30:37.754Z,99572.64
2018-12-04T10:33:06.283Z,99580.18
2018-12-04T10:35:34.816Z,99573.57
2018-12-04T10:38:03.641Z,99533.61
2018-12-04T10:40:32.238Z,99585.75
2018-12-04T10:43:01.170Z,99592.11
2018-12-04T10:45:29.726Z,99585.84
2018-12-04T10:47:58.613Z,99605.20
2018-12-04T10:50:27.106Z,99613.98
2018-12-04T10:52:55.694Z,99623.52
2018-12-04T10:55:24.358Z,99619.92
2018-12-04T10:57:52.882Z,99638.90
2018-12-04T11:00:26.815Z,99634.84
2018-12-04T11:02:59.512Z,99641.55
2018-12-04T11:05:28.178Z,99647.80
2018-12-04T11:07:56.863Z,99657.72
2018-12-04T11:10:25.350Z,99660.91
2018-12-04T11:12:54.154Z,99667.30
2018-12-04T11:15:22.698Z,99670.84
2018-12-04T11:17:51.483Z,99666.73
2018-12-04T11:20:20.113Z,99667.14
2018-12-04T11:22:48.607Z,99672.39
2018-12-04T11:25:17.275Z,99679.53
2018-12-04T11:27:45.859Z,99694.38
2018-12-04T11:30:14.440Z,99689.88
2018-12-04T11:32:43.129Z,99687.16
2018-12-04T11:35:11.761Z,99692.33
2018-12-04T11:37:40.311Z,99701.89
2018-12-04T11:40:08.821Z,99698.36
2018-12-04T11:42:37.741Z,99708.28
2018-12-04T11:45:06.515Z,99714.02
2018-12-04T11:47:35.176Z,99726.13
2018-12-04T11:50:04.037Z,99725.19
2018-12-04T11:52:32.818Z,99733.06
2018-12-04T11:55:01.317Z,99732.36
2018-12-04T11:57:30.298Z,99738.39
2018-12-04T11:59:58.796Z,99740.28
2018-12-04T12:02:27.327Z,99755.88
2018-12-04T12:04:56.216Z,99753.09
2018-12-04T12:07:24.726Z,99757.19
2018-12-04T12:09:53.384Z,99773.23
2018-12-04T12:12:21.990Z,99775.48
2018-12-04T12:14:50.651Z,99789.15
2018-12-04T12:17:19.142Z,99778.44
2018-12-04T12:19:47.693Z,99791.56
2018-12-04T12:22:16.993Z,99783.06
2018-12-04T12:24:45.494Z,99809.23
2018-12-04T12:27:14.298Z,99808.95
2018-12-04T12:29:42.873Z,99821.52
2018-12-04T12:32:11.581Z,99834.82
2018-12-04T12:34:40.095Z,99846.85
2018-12-04T12:37:08.679Z,99838.35
2018-12-04T12:39:37.193Z,99893.65
2018-12-04T12:42:05.938Z,99866.92
2018-12-04T12:44:34.678Z,99822.31
2018-12-04T12:47:03.238Z,99864.84
2018-12-04T12:49:32.198Z,99871.47
2018-12-04T12:52:00.754Z,99892.60
2018-12-04T12:54:29.370Z,99874.77
2018-12-04T12:56:57.901Z,99883.58
2018-12-04T12:59:26.385Z,99893.42
2018-12-04T13:01:55.039Z,99898.82
2018-12-04T13:04:23.577Z,99904.14
2018-12-04T13:06:52.247Z,99912.16
2018-12-04T13:09:20.748Z,99931.66
2018-12-04T13:11:49.289Z,99923.94
2018-12-04T13:14:17.863Z,99934.58
2018-12-04T13:16:46.522Z,99937.12
2018-12-04T13:19:15.375Z,99947.61
2018-12-04T13:21:43.947Z,99950.16
2018-12-04T13:24:12.663Z,99960.80
2018-12-04T13:26:41.248Z,99966.04
2018-12-04T13:29:09.913Z,99972.73
2018-12-04T13:31:38.588Z,99976.05
2018-12-04T13:34:07.118Z,99976.72
2018-12-04T13:36:35.742Z,99971.20
2018-12-04T13:39:07.641Z,99987.86
2018-12-04T13:41:36.357Z,99996.90
2018-12-04T13:44:05.013Z,100002.41
2018-12-04T13:46:33.651Z,99953.50
2018-12-04T13:49:02.222Z,99996.38
2018-12-04T13:51:31.005Z,100019.97
2018-12-04T13:53:59.495Z,100011.55
2018-12-04T13:56:28.153Z,100033.57
2018-12-04T13:58:56.796Z,100026.02
2018-12-04T14:01:25.300Z,100036.26
2018-12-04T14:03:53.844Z,100039.91
2018-12-04T14:06:22.340Z,100048.38
2018-12-04T14:11:29.831Z,100061.55
2018-12-04T14:13:58.317Z,100059.44
2018-12-04T14:16:27.092Z,100057.87
2018-12-04T14:18:55.813Z,100079.09
2018-12-04T14:21:24.413Z,100095.13
2018-12-04T14:23:52.904Z,100080.78
2018-12-04T14:26:21.711Z,100102.16
2018-12-04T14:28:50.511Z,100108.96
2018-12-04T14:31:18.985Z,100121.93
2018-12-04T14:33:47.707Z,100027.00
2018-12-04T14:36:16.313Z,100142.51
2018-12-04T14:38:45.077Z,100132.34
2018-12-04T14:41:13.622Z,100138.52
2018-12-04T14:43:42.324Z,100135.29
2018-12-04T14:46:10.822Z,100143.95
2018-12-04T14:48:39.433Z,100152.77
2018-12-04T14:51:08.010Z,100153.75
2018-12-04T14:53:36.522Z,100160.81
2018-12-04T14:56:05.477Z,100177.84
2018-12-04T14:58:33.994Z,100174.16
2018-12-04T15:03:42.188Z,100174.70
2018-12-04T15:06:10.763Z,100181.25
2018-12-04T15:08:39.378Z,100193.55
2018-12-04T15:11:08.308Z,100192.75
2018-12-04T15:13:37.211Z,100200.72
2018-12-04T15:16:05.936Z,100203.41
2018-12-04T15:18:34.599Z,100206.20
2018-12-04T15:21:03.098Z,100217.48
2018-12-04T15:23:31.589Z,100224.95
2018-12-04T15:26:00.367Z,100229.00
2018-12-04T15:28:28.911Z,100225.58
2018-12-04T15:30:57.739Z,100238.47
2018-12-04T15:33:26.389Z,100250.70
2018-12-04T15:35:55.372Z,100244.15
2018-12-04T15:38:23.917Z,100239.03
2018-12-04T15:40:52.508Z,100255.28
2018-12-04T15:43:21.242Z,100260.84
2018-12-04T15:45:49.993Z,100270.87
2018-12-04T15:48:18.737Z,100175.41
2018-12-04T15:50:47.331Z,100271.37
2018-12-04T15:53:16.073Z,100288.00
2018-12-04T15:55:44.552Z,100289.59
2018-12-04T15:58:13.138Z,100307.91
2018-12-04T16:00:41.657Z,100293.52
2018-12-04T16:03:10.147Z,100302.80
2018-12-04T16:05:38.870Z,100261.43
2018-12-04T16:08:07.512Z,100304.91
2018-12-04T16:10:36.395Z,100307.05
2018-12-04T16:13:04.927Z,100332.52
2018-12-04T16:15:33.559Z,100322.77
2018-12-04T16:18:02.084Z,100318.89
2018-12-04T16:20:30.598Z,100322.66
2018-12-04T16:22:59.346Z,100331.55
2018-12-04T16:25:27.914Z,100336.14
2018-12-04T16:30:35.410Z,100335.58
2018-12-04T16:33:03.947Z,100348.25
2018-12-04T16:35:32.553Z,100358.61
2018-12-04T16:38:01.050Z,100365.86
2018-12-04T16:40:31.770Z,100361.01
2018-12-04T16:43:02.785Z,100366.67
2018-12-04T16:45:33.617Z,100366.67
2018-12-04T16:48:08.218Z,100380.16
2018-12-04T16:50:37.174Z,100377.14
2018-12-04T16:53:15.216Z,100385.50
2018-12-04T16:55:52.159Z,100396.36
2018-12-04T16:58:20.945Z,100388.81
2018-12-04T17:00:51.270Z,100393.47
2018-12-04T17:03:20.445Z,100412.16
2018-12-04T17:05:52.762Z,100399.57
2018-12-04T17:08:21.350Z,100414.25
2018-12-04T17:10:50.211Z,100430.88
2018-12-04T17:13:18.851Z,100426.63
2018-12-04T17:15:47.754Z,100427.17
2018-12-04T17:18:17.814Z,100456.47
2018-12-04T17:20:46.518Z,100451.66
2018-12-04T17:23:15.077Z,100444.30
2018-12-04T17:25:43.750Z,100450.14
2018-12-04T17:28:12.607Z,100456.58
2018-12-04T17:30:41.185Z,100456.73
2018-12-04T17:35:45.542Z,100447.34
2018-12-04T17:38:14.009Z,100468.18
2018-12-04T17:40:42.851Z,100469.88
2018-12-04T17:43:11.567Z,100473.52
2018-12-04T17:45:40.192Z,100480.51
2018-12-04T17:48:08.740Z,100478.99
2018-12-04T17:50:37.333Z,100482.97
2018-12-04T17:53:06.066Z,100497.80
2018-12-04T17:55:34.618Z,100502.11
2018-12-04T18:00:43.848Z,100510.52
2018-12-04T18:03:12.442Z,100519.34
2018-12-04T18:05:41.011Z,100554.78
2018-12-04T18:08:09.503Z,100528.55
2018-12-04T18:10:38.328Z,100545.23
2018-12-04T18:13:06.551Z,100543.00
2018-12-04T18:15:35.271Z,100542.61
2018-12-04T18:18:04.023Z,100546.92
2018-12-04T18:20:32.643Z,100543.97
2018-12-04T18:23:01.165Z,100535.45
2018-12-04T18:25:29.668Z,100545.42
2018-12-04T18:27:58.738Z,100552.06
2018-12-04T18:30:29.541Z,100554.31
2018-12-04T18:32:58.096Z,100580.14
2018-12-04T18:35:27.195Z,100574.12
2018-12-04T18:37:55.997Z,100524.65
2018-12-04T18:40:24.626Z,100582.27
2018-12-04T18:42:56.938Z,100583.14
2018-12-04T18:45:25.550Z,100588.71
2018-12-04T18:47:54.993Z,100596.14
2018-12-04T18:50:23.563Z,100586.77
2018-12-04T18:52:52.199Z,100591.14
2018-12-04T18:55:23.579Z,100599.86
2018-12-04T18:57:52.672Z,100604.27
2018-12-04T19:00:21.202Z,100615.75
2018-12-04T19:02:50.198Z,100626.13
2018-12-04T19:05:18.871Z,100631.06
2018-12-04T19:07:49.466Z,100651.08
2018-12-04T19:10:18.077Z,100630.63
2018-12-04T19:12:46.976Z,100641.62
2018-12-04T19:15:15.558Z,100645.59
2018-12-04T19:17:44.205Z,100664.69
2018-12-04T19:20:12.934Z,100650.69
2018-12-04T19:22:42.075Z,100656.88
2018-12-04T19:25:10.807Z,100642.20
2018-12-04T19:27:39.395Z,100662.64
2018-12-04T19:30:12.118Z,100670.01
2018-12-04T19:32:41.067Z,100678.16
2018-12-04T19:35:11.487Z,100677.25
2018-12-04T19:37:40.495Z,100689.12
2018-12-04T19:40:11.231Z,100692.73
2018-12-04T19:42:44.101Z,100707.30
2018-12-04T19:45:13.637Z,100718.25
2018-12-04T19:47:43.315Z,100722.73
2018-12-04T19:50:12.512Z,100733.24
2018-12-04T19:52:42.546Z,100731.33
2018-12-04T19:55:11.673Z,100733.20
2018-12-04T19:57:41.774Z,100722.95
2018-12-04T20:00:12.537Z,100738.52
2018-12-04T20:02:42.390Z,100740.27
2018-12-04T20:05:22.111Z,100737.34
2018-12-04T20:07:53.546Z,100760.09
2018-12-04T20:10:24.579Z,100755.30
2018-12-04T20:12:53.754Z,100759.19
2018-12-04T20:15:24.558Z,100767.58
2018-12-04T20:17:54.164Z,100777.62
2018-12-04T20:20:24.566Z,100773.77
2018-12-04T20:22:53.139Z,100792.08
2018-12-04T20:25:22.295Z,100785.06
2018-12-04T20:27:50.787Z,100783.76
2018-12-04T20:30:20.473Z,100790.38
2018-12-04T20:32:51.613Z,100812.12
2018-12-04T20:35:21.000Z,100751.16
2018-12-04T20:37:49.562Z,100812.21
2018-12-04T20:42:57.206Z,100828.78
2018-12-04T20:45:25.770Z,100824.86
2018-12-04T20:47:54.698Z,100851.48
2018-12-04T20:50:23.212Z,100835.78
2018-12-04T20:52:52.115Z,100844.43
2018-12-04T20:55:23.295Z,100853.73
2018-12-04T20:57:52.321Z,100861.94
2018-12-04T21:00:21.061Z,100859.28
2018-12-04T21:02:49.680Z,100860.23
2018-12-04T21:05:18.209Z,100858.61
2018-12-04T21:07:46.828Z,100863.08
2018-12-04T21:10:15.395Z,100864.82
2018-12-04T21:12:43.974Z,100877.06
2018-12-04T21:15:12.778Z,100875.36
2018-12-04T21:17:41.281Z,100882.22
2018-12-04T21:20:10.313Z,100889.30
2018-12-04T21:22:38.925Z,100882.44
2018-12-04T21:25:07.880Z,100884.18
2018-12-04T21:27:42.463Z,100885.05
2018-12-04T21:30:16.552Z,100890.36
2018-12-04T21:32:50.661Z,100891.73
2018-12-04T21:35:24.430Z,100890.90
2018-12-04T21:37:58.170Z,100896.64
2018-12-04T21:40:32.134Z,100903.61
2018-12-04T21:43:05.928Z,100909.23
2018-12-04T21:46:42.395Z,100869.29
2018-12-04T21:49:11.131Z,100930.69
2018-12-04T21:51:39.678Z,100916.72
2018-12-04T21:54:08.355Z,100920.70
2018-12-04T21:56:36.999Z,100920.05
2018-12-04T21:59:05.642Z,100934.47
2018-12-04T22:01:34.397Z,100943.66
2018-12-04T22:04:02.909Z,100955.05
2018-12-04T22:06:31.889Z,100950.62
2018-12-04T22:09:00.524Z,100952.51
2018-12-04T22:11:29.154Z,100945.91
2018-12-04T22:13:57.635Z,100955.52
2018-12-04T22:16:26.284Z,100956.80
2018-12-04T22:18:55.060Z,100945.47
2018-12-04T22:21:23.608Z,100950.77
2018-12-04T22:23:52.466Z,100965.21
2018-12-04T22:26:21.971Z,100972.48
2018-12-04T22:28:50.794Z,100975.06
2018-12-04T22:31:19.409Z,100970.77
2018-12-04T22:33:48.044Z,100989.98
2018-12-04T22:36:16.650Z,100966.75
2018-12-04T22:38:45.262Z,100988.77
2018-12-04T22:41:14.251Z,100896.14
2018-12-04T22:43:42.835Z,100997.14
2018-12-04T22:46:11.743Z,101002.38
2018-12-04T22:48:40.411Z,101015.31
2018-12-04T22:51:09.215Z,101017.05
2018-12-04T22:53:37.773Z,101017.63
2018-12-04T22:56:06.331Z,101012.05
2018-12-04T22:58:34.842Z,101019.83
2018-12-04T23:01:03.702Z,101025.89
2018-12-04T23:03:32.565Z,101029.38
2018-12-04T23:06:01.106Z,101028.20
2018-12-04T23:08:30.099Z,101033.05
2018-12-04T23:10:58.588Z,101032.18
2018-12-04T23:13:27.284Z,101039.21
2018-12-04T23:15:55.926Z,101045.81
2018-12-04T23:18:24.571Z,101044.16
2018-12-04T23:20:53.218Z,101049.73
2018-12-04T23:23:21.878Z,101052.43
2018-12-04T23:25:50.671Z,101049.00
2018-12-04T23:28:19.273Z,101058.33
2018-12-04T23:30:48.258Z,101064.92
2018-12-04T23:33:16.847Z,101059.75
2018-12-04T23:35:45.346Z,101070.64
2018-12-04T23:38:13.870Z,101066.83
2018-12-04T23:40:42.542Z,101068.20
2018-12-04T23:43:11.230Z,101044.56
2018-12-04T23:45:39.859Z,101069.06
2018-12-04T23:48:08.652Z,101068.66
2018-12-04T23:50:37.144Z,101066.45
2018-12-04T23:55:44.783Z,100962.04
2018-12-04T23:58:13.297Z,101073.36
